createdAt,value
2019-03-24T00:00:03.701Z,7
2019-03-24T00:01:01.598Z,5
2019-03-24T00:02:01.834Z,6
2019-03-24T00:03:02.057Z,6
2019-03-24T00:04:02.202Z,6
2019-03-24T00:05:02.417Z,5
2019-03-24T00:06:01.648Z,7
2019-03-24T00:07:01.842Z,6
2019-03-24T00:08:02.166Z,5
2019-03-24T00:09:02.281Z,7
2019-03-24T00:10:01.537Z,7
2019-03-24T00:11:01.793Z,7
2019-03-24T00:12:02.025Z,6
2019-03-24T00:13:02.235Z,6
2019-03-24T00:14:02.432Z,6
2019-03-24T00:15:01.714Z,7
2019-03-24T00:16:01.872Z,6
2019-03-24T00:17:02.178Z,6
2019-03-24T00:18:02.381Z,6
2019-03-24T00:19:01.588Z,6
2019-03-24T00:20:01.890Z,7
2019-03-24T00:21:02.157Z,6
2019-03-24T00:22:02.390Z,6
2019-03-24T00:23:01.487Z,6
2019-03-24T00:24:01.706Z,6
2019-03-24T00:25:02.131Z,8
2019-03-24T00:26:02.422Z,6
2019-03-24T00:27:01.591Z,5
2019-03-24T00:28:01.878Z,6
2019-03-24T00:29:02.024Z,5
2019-03-24T00:30:02.297Z,6
2019-03-24T00:31:01.521Z,6
2019-03-24T00:32:01.851Z,7
2019-03-24T00:33:02.023Z,6
2019-03-24T00:34:02.272Z,6
2019-03-24T00:35:01.546Z,5
2019-03-24T00:36:01.708Z,5
2019-03-24T00:37:02.025Z,6
2019-03-24T00:38:02.148Z,6
2019-03-24T00:39:01.409Z,7
2019-03-24T00:40:01.820Z,5
2019-03-24T00:41:01.935Z,5
2019-03-24T00:42:02.266Z,5
2019-03-24T00:43:02.243Z,5
2019-03-24T00:44:01.481Z,7
2019-03-24T00:45:01.664Z,5
2019-03-24T00:46:01.927Z,5
2019-03-24T00:47:02.142Z,5
2019-03-24T00:48:02.285Z,5
2019-03-24T00:49:01.519Z,5
2019-03-24T00:50:01.704Z,6
2019-03-24T00:51:01.876Z,6
2019-03-24T00:52:02.124Z,5
2019-03-24T00:53:02.329Z,5
2019-03-24T00:54:01.504Z,5
2019-03-24T00:55:01.748Z,6
2019-03-24T00:56:02.001Z,6
2019-03-24T00:57:02.208Z,4
2019-03-24T00:58:01.437Z,5
2019-03-24T00:59:01.661Z,5
2019-03-24T01:00:03.300Z,5
2019-03-24T01:01:02.144Z,5
2019-03-24T01:02:02.361Z,6
2019-03-24T01:03:01.541Z,6
2019-03-24T01:04:01.760Z,5
2019-03-24T01:05:02.103Z,6
2019-03-24T01:06:02.335Z,5
2019-03-24T01:07:01.585Z,5
2019-03-24T01:08:01.870Z,4
2019-03-24T01:09:02.131Z,5
2019-03-24T01:10:01.445Z,5
2019-03-24T01:11:01.754Z,5
2019-03-24T01:12:02.100Z,5
2019-03-24T01:13:02.170Z,5
2019-03-24T01:14:01.408Z,6
2019-03-24T01:15:01.753Z,5
2019-03-24T01:16:01.954Z,5
2019-03-24T01:17:02.186Z,4
2019-03-24T01:18:01.386Z,5
2019-03-24T01:19:01.611Z,6
2019-03-24T01:20:01.831Z,5
2019-03-24T01:21:02.054Z,5
2019-03-24T01:22:02.287Z,4
2019-03-24T01:23:01.491Z,5
2019-03-24T01:24:01.686Z,4
2019-03-24T01:25:01.999Z,4
2019-03-24T01:26:02.243Z,5
2019-03-24T01:27:01.509Z,4
2019-03-24T01:28:01.802Z,4
2019-03-24T01:29:02.032Z,4
2019-03-24T01:30:02.259Z,5
2019-03-24T01:31:01.520Z,5
2019-03-24T01:32:01.837Z,4
2019-03-24T01:33:02.002Z,4
2019-03-24T01:34:02.187Z,6
2019-03-24T01:35:01.453Z,4
2019-03-24T01:36:01.663Z,4
2019-03-24T01:37:01.787Z,3
2019-03-24T01:38:02.037Z,4
2019-03-24T01:39:02.229Z,3
2019-03-24T01:40:01.656Z,4
2019-03-24T01:41:01.713Z,5
2019-03-24T01:42:01.970Z,5
2019-03-24T01:43:02.202Z,4
2019-03-24T01:44:01.518Z,4
2019-03-24T01:45:01.651Z,4
2019-03-24T01:46:01.857Z,4
2019-03-24T01:47:02.063Z,5
2019-03-24T01:48:02.280Z,5
2019-03-24T01:49:01.486Z,4
2019-03-24T01:50:01.767Z,5
2019-03-24T01:51:01.687Z,4
2019-03-24T01:52:01.969Z,5
2019-03-24T01:53:02.196Z,4
2019-03-24T01:54:01.497Z,4
2019-03-24T01:55:01.774Z,3
2019-03-24T01:56:01.877Z,4
2019-03-24T01:57:02.171Z,3
2019-03-24T01:58:02.360Z,5
2019-03-24T01:59:01.600Z,5
2019-03-24T02:00:07.150Z,2
2019-03-24T02:01:02.078Z,3
2019-03-24T02:02:02.219Z,4
2019-03-24T02:03:01.465Z,3
2019-03-24T02:04:01.619Z,3
2019-03-24T02:05:01.894Z,5
2019-03-24T02:06:02.160Z,3
2019-03-24T02:07:02.349Z,3
2019-03-24T02:08:01.565Z,4
2019-03-24T02:09:01.803Z,4
2019-03-24T02:10:02.131Z,4
2019-03-24T02:11:01.663Z,3
2019-03-24T02:12:02.039Z,4
2019-03-24T02:13:02.226Z,5
2019-03-24T02:14:01.412Z,4
2019-03-24T02:15:01.749Z,3
2019-03-24T02:16:09.284Z,2
2019-03-24T02:17:02.049Z,3
2019-03-24T02:18:02.197Z,4
2019-03-24T02:19:02.361Z,5
2019-03-24T02:20:01.669Z,5
2019-03-24T02:21:01.854Z,3
2019-03-24T02:22:02.123Z,3
2019-03-24T02:23:02.283Z,4
2019-03-24T02:24:01.490Z,3
2019-03-24T02:25:01.775Z,3
2019-03-24T02:26:01.996Z,3
2019-03-24T02:27:02.216Z,2
2019-03-24T02:28:02.405Z,3
2019-03-24T02:29:01.559Z,4
2019-03-24T02:30:01.836Z,4
2019-03-24T02:31:02.151Z,2
2019-03-24T02:32:02.422Z,3
2019-03-24T02:33:01.585Z,4
2019-03-24T02:34:01.636Z,3
2019-03-24T02:35:01.936Z,3
2019-03-24T02:36:02.092Z,2
2019-03-24T02:37:02.285Z,3
2019-03-24T02:38:01.475Z,2
2019-03-24T02:39:01.635Z,2
2019-03-24T02:40:01.950Z,3
2019-03-24T02:41:02.161Z,3
2019-03-24T02:42:02.366Z,2
2019-03-24T02:43:01.419Z,3
2019-03-24T02:44:01.715Z,3
2019-03-24T02:45:02.024Z,4
2019-03-24T02:46:02.263Z,4
2019-03-24T02:47:01.511Z,3
2019-03-24T02:48:01.615Z,3
2019-03-24T02:49:01.819Z,3
2019-03-24T02:50:02.055Z,3
2019-03-24T02:51:02.352Z,3
2019-03-24T02:52:01.510Z,2
2019-03-24T02:53:01.682Z,4
2019-03-24T02:54:01.969Z,3
2019-03-24T02:55:02.256Z,2
2019-03-24T02:56:01.563Z,3
2019-03-24T02:57:01.780Z,2
2019-03-24T02:58:02.006Z,3
2019-03-24T02:59:02.214Z,4
2019-03-24T03:00:03.571Z,3
2019-03-24T03:01:02.415Z,3
2019-03-24T03:02:01.643Z,3
2019-03-24T03:03:01.873Z,4
2019-03-24T03:04:02.035Z,3
2019-03-24T03:05:02.397Z,3
2019-03-24T03:06:01.511Z,3
2019-03-24T03:07:01.680Z,3
2019-03-24T03:08:01.855Z,2
2019-03-24T03:09:02.087Z,1
2019-03-24T03:10:02.399Z,4
2019-03-24T03:11:01.552Z,3
2019-03-24T03:12:01.815Z,3
2019-03-24T03:13:02.022Z,3
2019-03-24T03:14:02.262Z,3
2019-03-24T03:15:01.564Z,2
2019-03-24T03:16:02.090Z,3
2019-03-24T03:17:02.263Z,3
2019-03-24T03:18:01.526Z,3
2019-03-24T03:19:01.733Z,3
2019-03-24T03:20:02.003Z,3
2019-03-24T03:21:02.321Z,3
2019-03-24T03:22:01.488Z,2
2019-03-24T03:23:01.658Z,1
2019-03-24T03:24:01.831Z,2
2019-03-24T03:25:02.207Z,3
2019-03-24T03:26:02.430Z,3
2019-03-24T03:27:01.621Z,3
2019-03-24T03:28:01.802Z,3
2019-03-24T03:29:02.018Z,3
2019-03-24T03:30:02.290Z,2
2019-03-24T03:31:01.513Z,3
2019-03-24T03:32:01.701Z,3
2019-03-24T03:33:01.958Z,2
2019-03-24T03:34:02.199Z,1
2019-03-24T03:35:02.392Z,2
2019-03-24T03:36:01.578Z,2
2019-03-24T03:37:01.813Z,2
2019-03-24T03:38:02.014Z,3
2019-03-24T03:39:02.269Z,3
2019-03-24T03:40:01.558Z,3
2019-03-24T03:41:01.782Z,2
2019-03-24T03:42:01.989Z,3
2019-03-24T03:43:02.279Z,3
2019-03-24T03:44:01.623Z,3
2019-03-24T03:45:01.842Z,2
2019-03-24T03:46:02.011Z,3
2019-03-24T03:47:02.129Z,3
2019-03-24T03:48:02.403Z,2
2019-03-24T03:49:01.533Z,2
2019-03-24T03:50:01.858Z,3
2019-03-24T03:51:01.979Z,3
2019-03-24T03:52:02.191Z,3
2019-03-24T03:53:02.283Z,3
2019-03-24T03:54:01.516Z,2
2019-03-24T03:55:01.794Z,3
2019-03-24T03:56:01.954Z,3
2019-03-24T03:57:02.190Z,2
2019-03-24T03:58:01.549Z,3
2019-03-24T03:59:01.540Z,3
2019-03-24T04:00:01.967Z,3
2019-03-24T04:01:02.100Z,3
2019-03-24T04:02:02.337Z,2
2019-03-24T04:03:01.599Z,2
2019-03-24T04:04:01.832Z,2
2019-03-24T04:05:02.074Z,2
2019-03-24T04:06:02.283Z,3
2019-03-24T04:07:01.553Z,2
2019-03-24T04:08:01.831Z,2
2019-03-24T04:09:02.015Z,2
2019-03-24T04:10:02.473Z,3
2019-03-24T04:11:01.457Z,2
2019-03-24T04:12:01.638Z,2
2019-03-24T04:13:01.981Z,2
2019-03-24T04:14:02.090Z,3
2019-03-24T04:15:02.393Z,2
2019-03-24T04:16:01.591Z,3
2019-03-24T04:17:07.450Z,2
2019-03-24T04:18:02.040Z,2
2019-03-24T04:19:02.194Z,3
2019-03-24T04:20:02.435Z,2
2019-03-24T04:21:01.625Z,2
2019-03-24T04:22:01.837Z,3
2019-03-24T04:23:02.203Z,2
2019-03-24T04:24:02.326Z,3
2019-03-24T04:25:01.750Z,2
2019-03-24T04:26:01.830Z,3
2019-03-24T04:27:02.079Z,3
2019-03-24T04:28:02.294Z,3
2019-03-24T04:29:01.449Z,2
2019-03-24T04:30:01.679Z,3
2019-03-24T04:31:01.960Z,1
2019-03-24T04:32:02.186Z,2
2019-03-24T04:33:02.323Z,2
2019-03-24T04:34:01.564Z,1
2019-03-24T04:35:01.933Z,2
2019-03-24T04:36:02.128Z,1
2019-03-24T04:37:02.389Z,3
2019-03-24T04:38:01.581Z,2
2019-03-24T04:39:01.751Z,2
2019-03-24T04:40:02.051Z,3
2019-03-24T04:41:02.157Z,2
2019-03-24T04:42:02.421Z,2
2019-03-24T04:43:01.604Z,2
2019-03-24T04:44:01.799Z,2
2019-03-24T04:45:02.194Z,3
2019-03-24T04:46:02.394Z,2
2019-03-24T04:47:01.569Z,2
2019-03-24T04:48:02.047Z,3
2019-03-24T04:49:02.109Z,3
2019-03-24T04:50:02.328Z,2
2019-03-24T04:51:01.446Z,3
2019-03-24T04:52:01.943Z,2
2019-03-24T04:53:02.359Z,2
2019-03-24T04:54:01.417Z,2
2019-03-24T04:55:01.715Z,3
2019-03-24T04:56:01.871Z,2
2019-03-24T04:57:02.053Z,3
2019-03-24T04:58:02.285Z,2
2019-03-24T04:59:01.614Z,3
2019-03-24T05:00:03.914Z,2
2019-03-24T05:01:01.716Z,2
2019-03-24T05:02:01.977Z,2
2019-03-24T05:03:02.184Z,2
2019-03-24T05:04:02.453Z,5
2019-03-24T05:05:01.720Z,2
2019-03-24T05:06:01.826Z,1
2019-03-24T05:07:01.816Z,2
2019-03-24T05:08:02.123Z,3
2019-03-24T05:09:02.335Z,2
2019-03-24T05:10:01.613Z,2
2019-03-24T05:11:01.808Z,2
2019-03-24T05:12:01.976Z,3
2019-03-24T05:13:02.168Z,4
2019-03-24T05:14:02.338Z,2
2019-03-24T05:15:01.960Z,1
2019-03-24T05:16:01.821Z,2
2019-03-24T05:17:02.125Z,3
2019-03-24T05:18:02.232Z,3
2019-03-24T05:19:01.439Z,2
2019-03-24T05:20:01.707Z,2
2019-03-24T05:21:01.961Z,3
2019-03-24T05:22:02.204Z,3
2019-03-24T05:23:01.478Z,2
2019-03-24T05:24:01.671Z,3
2019-03-24T05:25:01.970Z,2
2019-03-24T05:26:02.180Z,2
2019-03-24T05:27:02.360Z,3
2019-03-24T05:28:01.614Z,2
2019-03-24T05:29:01.937Z,2
2019-03-24T05:30:02.151Z,3
2019-03-24T05:31:02.391Z,3
2019-03-24T05:32:01.596Z,3
2019-03-24T05:33:01.791Z,2
2019-03-24T05:34:01.995Z,3
2019-03-24T05:35:02.225Z,3
2019-03-24T05:36:01.459Z,3
2019-03-24T05:37:01.747Z,3
2019-03-24T05:38:01.920Z,4
2019-03-24T05:39:02.110Z,3
2019-03-24T05:40:02.421Z,4
2019-03-24T05:41:01.701Z,2
2019-03-24T05:42:01.589Z,2
2019-03-24T05:43:02.000Z,3
2019-03-24T05:44:02.039Z,3
2019-03-24T05:45:02.402Z,3
2019-03-24T05:46:01.692Z,2
2019-03-24T05:47:01.793Z,3
2019-03-24T05:48:02.097Z,3
2019-03-24T05:49:02.292Z,3
2019-03-24T05:50:01.588Z,3
2019-03-24T05:51:01.807Z,3
2019-03-24T05:52:02.035Z,3
2019-03-24T05:53:02.159Z,3
2019-03-24T05:54:01.443Z,2
2019-03-24T05:55:01.748Z,3
2019-03-24T05:56:02.031Z,3
2019-03-24T05:57:02.295Z,4
2019-03-24T05:58:01.474Z,4
2019-03-24T05:59:01.657Z,3
2019-03-24T06:00:03.395Z,3
2019-03-24T06:01:02.312Z,3
2019-03-24T06:02:01.666Z,3
2019-03-24T06:03:01.635Z,3
2019-03-24T06:04:01.843Z,3
2019-03-24T06:05:02.077Z,3
2019-03-24T06:06:02.266Z,4
2019-03-24T06:07:01.469Z,3
2019-03-24T06:08:01.670Z,2
2019-03-24T06:09:01.894Z,3
2019-03-24T06:10:02.207Z,3
2019-03-24T06:11:02.637Z,2
2019-03-24T06:12:01.607Z,3
2019-03-24T06:13:01.819Z,3
2019-03-24T06:14:02.072Z,3
2019-03-24T06:15:02.323Z,4
2019-03-24T06:16:01.494Z,4
2019-03-24T06:17:01.685Z,3
2019-03-24T06:18:01.447Z,2
2019-03-24T06:19:01.672Z,3
2019-03-24T06:20:02.014Z,3
2019-03-24T06:21:02.194Z,3
2019-03-24T06:22:02.370Z,3
2019-03-24T06:23:01.606Z,4
2019-03-24T06:24:01.881Z,3
2019-03-24T06:25:02.139Z,3
2019-03-24T06:26:02.387Z,3
2019-03-24T06:27:02.246Z,4
2019-03-24T06:28:01.584Z,3
2019-03-24T06:29:01.713Z,4
2019-03-24T06:30:01.967Z,3
2019-03-24T06:31:02.178Z,3
2019-03-24T06:32:02.382Z,3
2019-03-24T06:33:01.631Z,2
2019-03-24T06:34:01.815Z,3
2019-03-24T06:35:02.119Z,3
2019-03-24T06:36:02.316Z,3
2019-03-24T06:37:01.512Z,2
2019-03-24T06:38:01.754Z,3
2019-03-24T06:39:02.036Z,3
2019-03-24T06:40:01.533Z,3
2019-03-24T06:41:01.943Z,2
2019-03-24T06:42:02.004Z,3
2019-03-24T06:43:02.165Z,4
2019-03-24T06:44:02.435Z,4
2019-03-24T06:45:01.778Z,3
2019-03-24T06:46:01.990Z,3
2019-03-24T06:47:02.228Z,3
2019-03-24T06:48:01.494Z,3
2019-03-24T06:49:01.737Z,3
2019-03-24T06:50:01.660Z,2
2019-03-24T06:51:01.732Z,2
2019-03-24T06:52:01.932Z,4
2019-03-24T06:53:02.185Z,4
2019-03-24T06:54:02.377Z,4
2019-03-24T06:55:01.586Z,3
2019-03-24T06:56:01.757Z,4
2019-03-24T06:57:02.022Z,2
2019-03-24T06:58:02.283Z,2
2019-03-24T06:59:01.475Z,4
2019-03-24T07:00:07.628Z,3
2019-03-24T07:01:01.470Z,4
2019-03-24T07:02:01.717Z,3
2019-03-24T07:03:01.980Z,2
2019-03-24T07:04:02.223Z,2
2019-03-24T07:05:02.468Z,3
2019-03-24T07:06:02.378Z,2
2019-03-24T07:07:02.380Z,2
2019-03-24T07:08:01.608Z,2
2019-03-24T07:09:01.665Z,2
2019-03-24T07:10:01.935Z,3
2019-03-24T07:11:01.861Z,3
2019-03-24T07:12:02.001Z,3
2019-03-24T07:13:02.232Z,1
2019-03-24T07:14:02.559Z,3
2019-03-24T07:15:02.391Z,4
2019-03-24T07:16:01.550Z,2
2019-03-24T07:17:01.775Z,3
2019-03-24T07:18:08.308Z,3
2019-03-24T07:19:01.900Z,2
2019-03-24T07:20:02.142Z,3
2019-03-24T07:21:02.351Z,4
2019-03-24T07:22:02.297Z,3
2019-03-24T07:23:01.457Z,2
2019-03-24T07:24:01.752Z,4
2019-03-24T07:25:01.970Z,3
2019-03-24T07:26:02.108Z,3
2019-03-24T07:27:02.399Z,3
2019-03-24T07:28:01.608Z,3
2019-03-24T07:29:01.822Z,2
2019-03-24T07:30:02.090Z,2
2019-03-24T07:31:02.319Z,3
2019-03-24T07:32:01.538Z,3
2019-03-24T07:33:01.749Z,3
2019-03-24T07:34:02.017Z,3
2019-03-24T07:35:02.224Z,3
2019-03-24T07:36:01.496Z,4
2019-03-24T07:37:01.754Z,2
2019-03-24T07:38:01.979Z,4
2019-03-24T07:39:01.983Z,2
2019-03-24T07:40:02.246Z,2
2019-03-24T07:41:02.370Z,2
2019-03-24T07:42:01.574Z,2
2019-03-24T07:43:01.779Z,3
2019-03-24T07:44:02.037Z,3
2019-03-24T07:45:02.217Z,2
2019-03-24T07:46:01.429Z,1
2019-03-24T07:47:01.719Z,4
2019-03-24T07:48:01.869Z,3
2019-03-24T07:49:02.169Z,3
2019-03-24T07:50:02.441Z,3
2019-03-24T07:51:01.700Z,3
2019-03-24T07:52:01.939Z,3
2019-03-24T07:53:02.201Z,4
2019-03-24T07:54:01.394Z,3
2019-03-24T07:55:01.724Z,2
2019-03-24T07:56:01.890Z,2
2019-03-24T07:57:02.139Z,3
2019-03-24T07:58:02.343Z,4
2019-03-24T07:59:01.516Z,2
2019-03-24T08:00:03.882Z,2
2019-03-24T08:01:01.694Z,1
2019-03-24T08:02:01.878Z,2
2019-03-24T08:03:02.041Z,3
2019-03-24T08:04:02.323Z,3
2019-03-24T08:05:01.610Z,3
2019-03-24T08:06:01.876Z,2
2019-03-24T08:07:02.045Z,2
2019-03-24T08:08:02.211Z,3
2019-03-24T08:09:01.472Z,3
2019-03-24T08:10:01.655Z,3
2019-03-24T08:11:01.854Z,2
2019-03-24T08:12:02.142Z,2
2019-03-24T08:13:02.231Z,3
2019-03-24T08:14:01.380Z,2
2019-03-24T08:15:01.670Z,2
2019-03-24T08:16:01.575Z,2
2019-03-24T08:17:01.912Z,3
2019-03-24T08:18:02.092Z,2
2019-03-24T08:19:02.319Z,4
2019-03-24T08:20:01.617Z,2
2019-03-24T08:21:01.861Z,3
2019-03-24T08:22:02.094Z,2
2019-03-24T08:23:01.941Z,2
2019-03-24T08:24:02.170Z,3
2019-03-24T08:25:02.467Z,2
2019-03-24T08:26:01.577Z,2
2019-03-24T08:27:01.940Z,2
2019-03-24T08:28:02.128Z,3
2019-03-24T08:29:02.401Z,2
2019-03-24T08:30:01.511Z,2
2019-03-24T08:31:01.835Z,3
2019-03-24T08:32:01.787Z,2
2019-03-24T08:33:01.970Z,2
2019-03-24T08:34:02.170Z,2
2019-03-24T08:35:01.545Z,2
2019-03-24T08:36:01.737Z,2
2019-03-24T08:37:02.036Z,2
2019-03-24T08:38:02.279Z,2
2019-03-24T08:39:01.409Z,2
2019-03-24T08:40:01.716Z,2
2019-03-24T08:41:01.930Z,2
2019-03-24T08:42:02.094Z,2
2019-03-24T08:43:02.373Z,2
2019-03-24T08:44:01.471Z,3
2019-03-24T08:45:01.670Z,3
2019-03-24T08:46:01.973Z,2
2019-03-24T08:47:02.195Z,2
2019-03-24T08:48:02.424Z,2
2019-03-24T08:49:01.649Z,2
2019-03-24T08:50:01.936Z,2
2019-03-24T08:51:02.161Z,2
2019-03-24T08:52:02.401Z,1
2019-03-24T08:53:01.632Z,3
2019-03-24T08:54:01.784Z,1
2019-03-24T08:55:02.115Z,2
2019-03-24T08:56:02.344Z,3
2019-03-24T08:57:01.628Z,2
2019-03-24T08:58:01.770Z,3
2019-03-24T08:59:01.987Z,2
2019-03-24T09:00:05.570Z,2
2019-03-24T09:01:02.447Z,1
2019-03-24T09:02:01.686Z,2
2019-03-24T09:03:01.870Z,1
2019-03-24T09:04:01.842Z,2
2019-03-24T09:05:02.174Z,3
2019-03-24T09:06:02.281Z,2
2019-03-24T09:07:01.528Z,1
2019-03-24T09:08:01.793Z,1
2019-03-24T09:09:01.990Z,2
2019-03-24T09:10:02.285Z,2
2019-03-24T09:11:02.328Z,2
2019-03-24T09:12:01.586Z,2
2019-03-24T09:13:01.737Z,3
2019-03-24T09:14:01.938Z,2
2019-03-24T09:15:02.301Z,2
2019-03-24T09:16:01.454Z,2
2019-03-24T09:17:01.665Z,2
2019-03-24T09:18:01.782Z,2
2019-03-24T09:19:01.984Z,2
2019-03-24T09:20:02.378Z,0
2019-03-24T09:21:02.351Z,1
2019-03-24T09:22:01.590Z,2
2019-03-24T09:23:01.814Z,3
2019-03-24T09:24:02.073Z,2
2019-03-24T09:25:02.156Z,2
2019-03-24T09:26:02.312Z,2
2019-03-24T09:27:01.639Z,1
2019-03-24T09:28:01.749Z,3
2019-03-24T09:29:01.887Z,2
2019-03-24T09:30:02.247Z,1
2019-03-24T09:31:02.325Z,2
2019-03-24T09:32:01.479Z,2
2019-03-24T09:33:01.707Z,3
2019-03-24T09:34:01.881Z,2
2019-03-24T09:35:02.166Z,1
2019-03-24T09:36:02.405Z,1
2019-03-24T09:37:01.631Z,1
2019-03-24T09:38:01.825Z,0
2019-03-24T09:39:02.052Z,1
2019-03-24T09:40:01.453Z,2
2019-03-24T09:41:01.645Z,2
2019-03-24T09:42:01.810Z,1
2019-03-24T09:43:02.085Z,1
2019-03-24T09:44:02.268Z,2
2019-03-24T09:45:01.432Z,2
2019-03-24T09:46:01.595Z,2
2019-03-24T09:47:01.952Z,2
2019-03-24T09:48:02.137Z,1
2019-03-24T09:49:03.359Z,2
2019-03-24T09:50:01.661Z,1
2019-03-24T09:51:01.842Z,1
2019-03-24T09:52:02.058Z,2
2019-03-24T09:53:02.335Z,1
2019-03-24T09:54:01.486Z,1
2019-03-24T09:55:01.764Z,1
2019-03-24T09:56:01.949Z,2
2019-03-24T09:57:01.429Z,2
2019-03-24T09:58:01.620Z,0
2019-03-24T09:59:01.842Z,2
2019-03-24T10:00:04.117Z,2
2019-03-24T10:01:01.951Z,2
2019-03-24T10:02:02.206Z,0
2019-03-24T10:03:02.379Z,1
2019-03-24T10:04:01.627Z,1
2019-03-24T10:05:01.868Z,1
2019-03-24T10:06:02.040Z,1
2019-03-24T10:07:02.196Z,0
2019-03-24T10:08:01.817Z,1
2019-03-24T10:09:01.893Z,1
2019-03-24T10:10:02.198Z,1
2019-03-24T10:11:02.399Z,2
2019-03-24T10:12:01.484Z,2
2019-03-24T10:13:01.684Z,2
2019-03-24T10:14:01.727Z,1
2019-03-24T10:15:01.958Z,1
2019-03-24T10:16:02.225Z,0
2019-03-24T10:17:01.428Z,2
2019-03-24T10:18:01.732Z,2
2019-03-24T10:19:01.898Z,2
2019-03-24T10:20:01.838Z,1
2019-03-24T10:21:01.999Z,1
2019-03-24T10:22:02.269Z,2
2019-03-24T10:23:01.368Z,1
2019-03-24T10:24:01.575Z,1
2019-03-24T10:25:01.849Z,1
2019-03-24T10:26:02.026Z,1
2019-03-24T10:27:02.254Z,2
2019-03-24T10:28:01.436Z,1
2019-03-24T10:29:01.708Z,1
2019-03-24T10:30:01.972Z,2
2019-03-24T10:31:02.176Z,1
2019-03-24T10:32:01.470Z,1
2019-03-24T10:33:01.592Z,0
2019-03-24T10:34:01.809Z,1
2019-03-24T10:35:01.719Z,2
2019-03-24T10:36:01.758Z,2
2019-03-24T10:37:02.048Z,2
2019-03-24T10:38:02.251Z,2
2019-03-24T10:39:01.420Z,2
2019-03-24T10:40:01.713Z,1
2019-03-24T10:41:01.827Z,1
2019-03-24T10:42:02.130Z,2
2019-03-24T10:43:02.233Z,0
2019-03-24T10:44:01.451Z,0
2019-03-24T10:45:01.724Z,1
2019-03-24T10:46:01.961Z,1
2019-03-24T10:47:02.194Z,1
2019-03-24T10:48:02.289Z,1
2019-03-24T10:49:01.534Z,0
2019-03-24T10:50:01.853Z,1
2019-03-24T10:51:01.990Z,1
2019-03-24T10:52:02.207Z,0
2019-03-24T10:53:01.398Z,1
2019-03-24T10:54:01.678Z,1
2019-03-24T10:55:01.862Z,1
2019-03-24T10:56:02.084Z,1
2019-03-24T10:57:02.248Z,0
2019-03-24T10:58:01.485Z,1
2019-03-24T10:59:01.650Z,1
2019-03-24T11:00:03.340Z,1
2019-03-24T11:01:02.172Z,1
2019-03-24T11:02:01.364Z,1
2019-03-24T11:03:01.631Z,1
2019-03-24T11:04:01.932Z,0
2019-03-24T11:05:02.201Z,1
2019-03-24T11:06:02.406Z,1
2019-03-24T11:07:01.681Z,1
2019-03-24T11:08:01.841Z,2
2019-03-24T11:09:02.091Z,1
2019-03-24T11:10:02.339Z,1
2019-03-24T11:11:01.546Z,1
2019-03-24T11:12:01.890Z,1
2019-03-24T11:13:01.996Z,0
2019-03-24T11:14:02.197Z,1
2019-03-24T11:15:01.466Z,1
2019-03-24T11:16:01.696Z,1
2019-03-24T11:17:01.928Z,1
2019-03-24T11:18:02.162Z,1
2019-03-24T11:19:02.346Z,2
2019-03-24T11:20:01.603Z,0
2019-03-24T11:21:01.755Z,1
2019-03-24T11:22:01.946Z,1
2019-03-24T11:23:02.182Z,2
2019-03-24T11:24:02.393Z,2
2019-03-24T11:25:02.412Z,1
2019-03-24T11:26:01.477Z,2
2019-03-24T11:27:01.668Z,1
2019-03-24T11:28:01.896Z,0
2019-03-24T11:29:01.432Z,0
2019-03-24T11:30:01.667Z,2
2019-03-24T11:31:02.347Z,0
2019-03-24T11:32:01.501Z,1
2019-03-24T11:33:01.697Z,1
2019-03-24T11:34:01.886Z,1
2019-03-24T11:35:02.221Z,0
2019-03-24T11:36:02.377Z,0
2019-03-24T11:37:01.638Z,1
2019-03-24T11:38:01.912Z,2
2019-03-24T11:39:02.081Z,1
2019-03-24T11:40:02.342Z,1
2019-03-24T11:41:01.508Z,1
2019-03-24T11:42:01.749Z,1
2019-03-24T11:43:01.952Z,1
2019-03-24T11:44:02.150Z,0
2019-03-24T11:45:02.444Z,2
2019-03-24T11:46:01.598Z,1
2019-03-24T11:47:01.844Z,1
2019-03-24T11:48:02.083Z,1
2019-03-24T11:49:02.239Z,1
2019-03-24T11:50:01.470Z,1
2019-03-24T11:51:01.664Z,1
2019-03-24T11:52:01.661Z,0
2019-03-24T11:53:01.840Z,1
2019-03-24T11:54:01.961Z,1
2019-03-24T11:55:02.164Z,1
2019-03-24T11:56:02.340Z,1
2019-03-24T11:57:01.514Z,1
2019-03-24T11:58:06.081Z,1
2019-03-24T11:59:01.994Z,1
2019-03-24T12:00:05.134Z,0
2019-03-24T12:01:01.912Z,2
2019-03-24T12:02:02.091Z,1
2019-03-24T12:03:01.945Z,1
2019-03-24T12:04:02.083Z,1
2019-03-24T12:05:02.336Z,1
2019-03-24T12:06:01.620Z,0
2019-03-24T12:07:01.816Z,2
2019-03-24T12:08:02.103Z,0
2019-03-24T12:09:02.346Z,0
2019-03-24T12:10:01.583Z,0
2019-03-24T12:11:01.720Z,1
2019-03-24T12:12:01.906Z,1
2019-03-24T12:13:02.224Z,0
2019-03-24T12:14:01.481Z,1
2019-03-24T12:15:01.664Z,1
2019-03-24T12:16:01.826Z,1
2019-03-24T12:17:02.051Z,1
2019-03-24T12:18:02.230Z,1
2019-03-24T12:19:01.448Z,1
2019-03-24T12:20:01.779Z,1
2019-03-24T12:21:02.022Z,0
2019-03-24T12:22:02.275Z,0
2019-03-24T12:23:01.419Z,0
2019-03-24T12:24:01.601Z,1
2019-03-24T12:25:01.904Z,2
2019-03-24T12:26:02.142Z,1
2019-03-24T12:27:02.285Z,1
2019-03-24T12:28:01.421Z,1
2019-03-24T12:29:01.678Z,1
2019-03-24T12:30:02.029Z,2
2019-03-24T12:31:01.926Z,0
2019-03-24T12:32:02.275Z,0
2019-03-24T12:33:01.457Z,1
2019-03-24T12:34:01.669Z,1
2019-03-24T12:35:01.932Z,0
2019-03-24T12:36:02.058Z,1
2019-03-24T12:37:02.287Z,2
2019-03-24T12:38:02.245Z,1
2019-03-24T12:39:02.252Z,1
2019-03-24T12:40:01.501Z,1
2019-03-24T12:41:01.770Z,0
2019-03-24T12:42:01.969Z,1
2019-03-24T12:43:02.285Z,0
2019-03-24T12:44:01.471Z,2
2019-03-24T12:45:01.857Z,0
2019-03-24T12:46:02.116Z,0
2019-03-24T12:47:02.356Z,1
2019-03-24T12:48:01.606Z,0
2019-03-24T12:49:01.838Z,1
2019-03-24T12:50:08.682Z,1
2019-03-24T12:51:02.318Z,0
2019-03-24T12:52:01.556Z,0
2019-03-24T12:53:01.434Z,1
2019-03-24T12:54:01.693Z,0
2019-03-24T12:55:01.943Z,0
2019-03-24T12:56:02.114Z,1
2019-03-24T12:57:02.240Z,0
2019-03-24T12:58:01.454Z,0
2019-03-24T12:59:01.641Z,0
2019-03-24T13:00:03.386Z,0
2019-03-24T13:01:02.211Z,0
2019-03-24T13:02:02.283Z,1
2019-03-24T13:03:01.465Z,1
2019-03-24T13:04:01.776Z,1
2019-03-24T13:05:02.060Z,0
2019-03-24T13:06:02.374Z,1
2019-03-24T13:07:01.488Z,1
2019-03-24T13:08:01.760Z,1
2019-03-24T13:09:02.093Z,0
2019-03-24T13:10:02.359Z,0
2019-03-24T13:11:01.568Z,1
2019-03-24T13:12:01.739Z,1
2019-03-24T13:13:01.811Z,1
2019-03-24T13:14:02.088Z,0
2019-03-24T13:15:02.393Z,0
2019-03-24T13:16:02.051Z,0
2019-03-24T13:17:02.266Z,0
2019-03-24T13:18:01.383Z,2
2019-03-24T13:19:01.579Z,0
2019-03-24T13:20:01.918Z,1
2019-03-24T13:21:02.166Z,0
2019-03-24T13:22:02.364Z,1
2019-03-24T13:23:01.530Z,0
2019-03-24T13:24:01.792Z,1
2019-03-24T13:25:01.886Z,0
2019-03-24T13:26:01.957Z,1
2019-03-24T13:27:02.168Z,1
2019-03-24T13:28:01.429Z,0
2019-03-24T13:29:01.646Z,1
2019-03-24T13:30:01.856Z,1
2019-03-24T13:31:02.020Z,0
2019-03-24T13:32:02.241Z,1
2019-03-24T13:33:01.429Z,1
2019-03-24T13:34:01.607Z,1
2019-03-24T13:35:02.087Z,0
2019-03-24T13:36:02.244Z,0
2019-03-24T13:37:04.083Z,0
2019-03-24T13:38:01.617Z,1
2019-03-24T13:39:01.788Z,1
2019-03-24T13:40:02.107Z,1
2019-03-24T13:41:02.245Z,2
2019-03-24T13:42:01.458Z,2
2019-03-24T13:43:01.639Z,2
2019-03-24T13:44:01.945Z,2
2019-03-24T13:45:02.142Z,3
2019-03-24T13:46:02.319Z,1
2019-03-24T13:47:01.435Z,1
2019-03-24T13:48:01.592Z,1
2019-03-24T13:49:01.730Z,1
2019-03-24T13:50:02.040Z,2
2019-03-24T13:51:02.229Z,1
2019-03-24T13:52:02.125Z,1
2019-03-24T13:53:02.251Z,1
2019-03-24T13:54:01.531Z,2
2019-03-24T13:55:01.758Z,1
2019-03-24T13:56:01.952Z,0
2019-03-24T13:57:02.172Z,1
2019-03-24T13:58:01.434Z,1
2019-03-24T13:59:01.655Z,0
2019-03-24T14:00:04.840Z,0
2019-03-24T14:01:01.622Z,1
2019-03-24T14:02:01.872Z,1
2019-03-24T14:03:01.995Z,1
2019-03-24T14:04:02.253Z,1
2019-03-24T14:05:01.494Z,0
2019-03-24T14:06:01.650Z,1
2019-03-24T14:07:01.817Z,1
2019-03-24T14:08:01.953Z,0
2019-03-24T14:09:02.234Z,1
2019-03-24T14:10:02.425Z,2
2019-03-24T14:11:02.177Z,0
2019-03-24T14:12:02.306Z,2
2019-03-24T14:13:01.458Z,2
2019-03-24T14:14:01.730Z,1
2019-03-24T14:15:01.920Z,1
2019-03-24T14:16:02.134Z,1
2019-03-24T14:17:02.350Z,1
2019-03-24T14:18:02.385Z,2
2019-03-24T14:19:01.575Z,1
2019-03-24T14:20:01.875Z,1
2019-03-24T14:21:02.079Z,2
2019-03-24T14:22:02.261Z,1
2019-03-24T14:23:01.479Z,1
2019-03-24T14:24:01.809Z,3
2019-03-24T14:25:01.966Z,1
2019-03-24T14:26:02.266Z,2
2019-03-24T14:27:01.467Z,1
2019-03-24T14:28:01.674Z,1
2019-03-24T14:29:01.945Z,1
2019-03-24T14:30:02.142Z,1
2019-03-24T14:31:02.304Z,0
2019-03-24T14:32:01.543Z,0
2019-03-24T14:33:01.828Z,1
2019-03-24T14:34:01.930Z,0
2019-03-24T14:35:02.253Z,1
2019-03-24T14:36:01.502Z,2
2019-03-24T14:37:01.685Z,1
2019-03-24T14:38:01.916Z,1
2019-03-24T14:39:02.168Z,1
2019-03-24T14:40:02.314Z,1
2019-03-24T14:41:01.569Z,2
2019-03-24T14:42:01.783Z,2
2019-03-24T14:43:01.994Z,1
2019-03-24T14:44:02.215Z,1
2019-03-24T14:45:01.572Z,1
2019-03-24T14:46:01.726Z,0
2019-03-24T14:47:02.341Z,0